Time;durP1;ratioP1;P1;durP2;ratioP2;P2;SDS_P1;SDS_P2;PMS_P1;PMS_P2;Temp;Humidity;BMP_temperature;BMP_pressure;BME280_temperature;BME280_humidity;BME280_pressure;Samples;Min_cycle;Max_cycle;Signal;HPM_P1;HPM_P2
2022/01/11 00:01:23;;;;;;;22.38;13.05;;;9.40;99.90;;;;;;5043389;28;20045;-65
2022/01/11 00:03:49;;;;;;;28.55;14.13;;;9.40;99.90;;;;;;5041188;28;20295;-65
2022/01/11 00:09:23;;;;;;;25.95;13.98;;;9.10;99.90;;;;;;5042950;28;20060;-65
2022/01/11 00:11:49;;;;;;;25.48;14.52;;;10.40;99.90;;;;;;5044914;28;20112;-65
2022/01/11 00:14:16;;;;;;;28.38;15.65;;;9.10;99.90;;;;;;5042786;28;20033;-65
2022/01/11 00:16:42;;;;;;;24.98;15.13;;;9.50;99.90;;;;;;5045210;28;20410;-65
2022/01/11 00:19:08;;;;;;;32.67;16.17;;;9.50;99.90;;;;;;5038550;28;20033;-65
2022/01/11 00:21:39;;;;;;;30.58;15.38;;;9.50;99.90;;;;;;5036486;28;20079;-65
2022/01/11 00:26:50;;;;;;;31.38;15.20;;;9.50;99.90;;;;;;5037436;28;20095;-65
2022/01/11 00:29:16;;;;;;;28.45;15.38;;;;;;;;;;5033149;28;20113;-65
2022/01/11 00:31:44;;;;;;;21.90;12.50;;;9.60;99.90;;;;;;5032702;28;20046;-65
2022/01/11 00:34:10;;;;;;;28.05;14.35;;;;;;;;;;5038692;28;20110;-65
2022/01/11 00:36:42;;;;;;;26.10;15.70;;;10.90;99.90;;;;;;5043671;28;20402;-65
2022/01/11 00:39:09;;;;;;;30.75;15.60;;;9.50;99.90;;;;;;5044189;28;20083;-65
2022/01/11 00:41:37;;;;;;;30.73;16.30;;;9.40;99.90;;;;;;5030374;28;20116;-65
2022/01/11 00:44:04;;;;;;;31.52;16.17;;;9.40;99.90;;;;;;5043203;28;20032;-65
2022/01/11 00:46:30;;;;;;;28.92;15.35;;;7.90;99.90;;;;;;5035631;28;20038;-65
2022/01/11 00:48:56;;;;;;;26.70;14.50;;;;;;;;;;5033142;28;20045;-65
2022/01/11 00:51:22;;;;;;;31.05;16.33;;;;;;;;;;5042617;28;20099;-65
2022/01/11 00:53:48;;;;;;;32.45;17.02;;;10.20;99.90;;;;;;5028889;28;20041;-65
2022/01/11 00:56:14;;;;;;;34.92;18.35;;;9.50;99.90;;;;;;5047097;28;20025;-65
2022/01/11 00:58:41;;;;;;;31.52;16.75;;;7.90;99.90;;;;;;5040529;28;20032;-65
2022/01/11 01:01:07;;;;;;;34.03;16.70;;;9.30;99.90;;;;;;5038349;28;20394;-65
2022/01/11 01:03:34;;;;;;;35.22;18.20;;;10.50;99.90;;;;;;5042996;28;20080;-65
2022/01/11 01:06:00;;;;;;;34.08;17.70;;;9.40;99.90;;;;;;5030699;28;20076;-65
2022/01/11 01:08:25;;;;;;;31.73;16.92;;;9.90;99.90;;;;;;5047337;28;20309;-65
2022/01/11 01:10:51;;;;;;;33.28;17.17;;;10.30;99.90;;;;;;5044053;28;20361;-65
2022/01/11 01:13:20;;;;;;;29.50;14.02;;;9.60;99.90;;;;;;5035327;28;20041;-65
2022/01/11 01:15:48;;;;;;;31.08;18.52;;;10.00;99.90;;;;;;5041120;28;20096;-65
2022/01/11 01:18:21;;;;;;;36.78;17.50;;;9.50;99.90;;;;;;5036776;28;20067;-65
2022/01/11 01:20:47;;;;;;;37.67;17.77;;;9.50;99.90;;;;;;5039495;28;20038;-65
2022/01/11 01:23:13;;;;;;;34.58;18.42;;;9.50;99.90;;;;;;5033404;28;20088;-65
2022/01/11 01:25:41;;;;;;;31.65;16.85;;;9.50;99.90;;;;;;5043173;28;20100;-65
2022/01/11 01:28:08;;;;;;;30.75;17.25;;;9.50;99.90;;;;;;5043160;28;20032;-65
2022/01/11 01:30:34;;;;;;;30.65;17.13;;;9.50;99.90;;;;;;5043136;28;20025;-65
2022/01/11 01:33:00;;;;;;;31.13;17.98;;;9.50;99.90;;;;;;5038827;28;20029;-65
2022/01/11 01:35:31;;;;;;;30.75;16.42;;;9.50;99.90;;;;;;5043292;28;20530;-65
2022/01/11 01:37:58;;;;;;;32.65;17.52;;;9.50;99.90;;;;;;5041869;28;20022;-65
2022/01/11 01:40:24;;;;;;;34.53;17.48;;;9.50;99.90;;;;;;5045306;28;20071;-65
2022/01/11 01:42:51;;;;;;;35.83;18.10;;;9.50;99.90;;;;;;5043878;28;20481;-65
2022/01/11 01:45:19;;;;;;;32.40;17.95;;;9.50;99.90;;;;;;5045416;28;20044;-65
2022/01/11 01:47:44;;;;;;;34.47;18.23;;;9.50;99.90;;;;;;5032286;28;20029;-65
2022/01/11 01:50:11;;;;;;;34.80;18.35;;;9.50;99.90;;;;;;5042405;28;20025;-65
2022/01/11 01:52:37;;;;;;;32.22;18.80;;;9.50;99.90;;;;;;5039290;28;20251;-65
2022/01/11 01:55:05;;;;;;;31.52;18.33;;;9.50;99.90;;;;;;5046024;28;20120;-65
2022/01/11 01:57:30;;;;;;;29.58;16.85;;;9.50;99.90;;;;;;5042676;28;20061;-65
2022/01/11 01:59:56;;;;;;;28.75;16.30;;;9.50;99.90;;;;;;5042285;28;20457;-65
2022/01/11 02:02:22;;;;;;;32.47;17.48;;;9.50;99.90;;;;;;5045851;28;20033;-65
2022/01/11 02:04:50;;;;;;;35.13;19.13;;;9.50;99.90;;;;;;5040063;28;20155;-65
2022/01/11 02:07:15;;;;;;;30.55;17.58;;;9.50;99.90;;;;;;5046395;28;20037;-65
2022/01/11 02:09:41;;;;;;;34.53;18.30;;;9.40;99.90;;;;;;5046356;28;20028;-65
2022/01/11 02:12:07;;;;;;;40.85;19.02;;;9.50;99.90;;;;;;5046112;28;20040;-65
2022/01/11 02:14:33;;;;;;;32.60;18.77;;;9.50;99.90;;;;;;5041845;28;20041;-65
2022/01/11 02:17:00;;;;;;;34.47;18.52;;;9.50;99.90;;;;;;5047976;28;20024;-65
2022/01/11 02:19:27;;;;;;;31.13;16.92;;;9.50;99.90;;;;;;5042586;28;20065;-65
2022/01/11 02:21:53;;;;;;;33.03;18.20;;;9.50;99.90;;;;;;5043915;28;20025;-65
2022/01/11 02:24:19;;;;;;;29.77;16.13;;;9.50;99.90;;;;;;5046248;28;20503;-65
2022/01/11 02:26:45;;;;;;;27.00;17.42;;;9.50;99.90;;;;;;5047528;28;20473;-65
2022/01/11 02:29:11;;;;;;;38.35;18.33;;;9.50;99.90;;;;;;5040244;28;20560;-65
2022/01/11 02:31:38;;;;;;;33.03;18.15;;;9.50;99.90;;;;;;5045336;28;20099;-65
2022/01/11 02:34:04;;;;;;;32.42;18.05;;;9.50;99.90;;;;;;5040379;28;20076;-65
2022/01/11 02:36:35;;;;;;;35.45;17.15;;;9.50;99.90;;;;;;5045583;28;20025;-65
2022/01/11 02:39:02;;;;;;;33.58;17.77;;;9.50;99.90;;;;;;5042109;28;20119;-65
2022/01/11 02:41:29;;;;;;;31.58;16.58;;;9.50;99.90;;;;;;5047730;28;20028;-65
2022/01/11 02:43:57;;;;;;;35.42;17.23;;;9.50;99.90;;;;;;5047203;28;20035;-65
2022/01/11 02:46:24;;;;;;;31.02;17.15;;;9.50;99.90;;;;;;5036326;28;20047;-65
2022/01/11 02:48:52;;;;;;;31.92;17.00;;;9.60;99.90;;;;;;5039499;28;20033;-65
2022/01/11 02:51:18;;;;;;;34.38;17.15;;;9.60;99.90;;;;;;5035037;28;20040;-65
2022/01/11 02:53:46;;;;;;;29.52;16.15;;;9.50;99.90;;;;;;5041458;28;20045;-65
2022/01/11 02:56:13;;;;;;;28.35;16.48;;;9.50;99.90;;;;;;5048003;28;20384;-65
2022/01/11 02:58:39;;;;;;;32.10;17.90;;;9.60;99.90;;;;;;5042682;28;20409;-65
2022/01/11 03:01:06;;;;;;;30.20;17.90;;;9.50;99.90;;;;;;5040359;28;20041;-65
2022/01/11 03:03:32;;;;;;;30.95;16.65;;;9.50;99.90;;;;;;5038595;28;20036;-65
2022/01/11 03:06:03;;;;;;;29.27;16.67;;;9.50;99.90;;;;;;5046057;28;20032;-65
2022/01/11 03:08:42;;;;;;;28.05;14.15;;;9.50;99.90;;;;;;5049225;28;20031;-65
2022/01/11 03:11:09;;;;;;;28.63;15.00;;;9.50;99.90;;;;;;5036137;28;20052;-65
2022/01/11 03:13:35;;;;;;;30.92;15.32;;;9.50;99.90;;;;;;5035970;28;20068;-65
2022/01/11 03:16:02;;;;;;;27.27;15.70;;;9.50;99.90;;;;;;5035513;28;20052;-65
2022/01/11 03:18:28;;;;;;;30.60;17.88;;;9.50;99.90;;;;;;5044990;28;20119;-65
2022/01/11 03:20:54;;;;;;;27.67;16.67;;;9.40;99.90;;;;;;5030133;28;20039;-65
2022/01/11 03:23:21;;;;;;;30.65;15.30;;;9.50;99.90;;;;;;5045483;28;20183;-66
2022/01/11 03:25:48;;;;;;;26.35;16.38;;;9.40;99.90;;;;;;5044743;28;20442;-65
2022/01/11 03:28:16;;;;;;;31.67;18.35;;;9.50;99.90;;;;;;5038529;28;20031;-65
2022/01/11 03:30:42;;;;;;;31.92;17.02;;;9.40;99.90;;;;;;5042384;28;20036;-65
2022/01/11 03:33:08;;;;;;;32.88;16.58;;;9.80;99.90;;;;;;5054966;28;20044;-65
2022/01/11 03:35:38;;;;;;;28.85;15.43;;;9.40;99.90;;;;;;5031718;28;20114;-65
2022/01/11 03:38:07;;;;;;;34.67;16.90;;;9.50;99.90;;;;;;5033996;28;20125;-65
2022/01/11 03:40:33;;;;;;;29.80;16.67;;;9.40;99.90;;;;;;5042524;28;20403;-65
2022/01/11 03:42:59;;;;;;;34.33;17.63;;;9.40;99.90;;;;;;5040831;28;20113;-65
2022/01/11 03:45:26;;;;;;;36.25;17.70;;;9.40;99.90;;;;;;5033420;28;20454;-65
2022/01/11 03:47:54;;;;;;;37.08;17.45;;;9.40;99.90;;;;;;5041837;28;20022;-65
2022/01/11 03:50:20;;;;;;;26.42;14.57;;;9.40;99.90;;;;;;5044187;28;20032;-65
2022/01/11 03:52:46;;;;;;;32.60;16.85;;;9.40;99.90;;;;;;5033985;28;20037;-65
2022/01/11 03:55:21;;;;;;;36.85;17.13;;;9.40;99.90;;;;;;5036136;28;20441;-65
2022/01/11 03:57:48;;;;;;;34.13;17.05;;;9.40;99.90;;;;;;5042586;28;20052;-66
2022/01/11 04:00:18;;;;;;;30.40;16.08;;;9.40;99.90;;;;;;5043932;28;20029;-66
2022/01/11 04:02:45;;;;;;;35.17;16.27;;;9.40;99.90;;;;;;5039591;28;20039;-65
2022/01/11 04:05:12;;;;;;;30.50;16.33;;;9.40;99.90;;;;;;5046735;28;20040;-66
2022/01/11 04:07:40;;;;;;;30.50;17.17;;;9.40;99.90;;;;;;5045847;28;20072;-65
2022/01/11 04:10:08;;;;;;;32.88;16.67;;;9.40;99.90;;;;;;5044337;28;20115;-65
2022/01/11 04:12:34;;;;;;;33.13;15.18;;;9.80;99.90;;;;;;5043286;28;20017;-65
2022/01/11 04:15:00;;;;;;;31.40;16.70;;;9.40;99.90;;;;;;5041995;28;20885;-65
2022/01/11 04:17:26;;;;;;;35.40;17.15;;;9.40;99.90;;;;;;5043675;28;20028;-65
2022/01/11 04:19:52;;;;;;;37.50;16.08;;;8.90;99.90;;;;;;5046775;28;20100;-65
2022/01/11 04:22:19;;;;;;;33.55;16.45;;;9.60;99.90;;;;;;5044191;28;20029;-65
2022/01/11 04:24:46;;;;;;;37.25;15.63;;;8.80;99.90;;;;;;5039211;28;20021;-65
2022/01/11 04:27:11;;;;;;;31.23;16.05;;;9.30;99.90;;;;;;5042443;28;20285;-65
2022/01/11 04:29:37;;;;;;;32.38;13.85;;;9.30;99.90;;;;;;5030412;28;20040;-65
2022/01/11 04:32:03;;;;;;;31.55;14.90;;;8.50;99.90;;;;;;5047328;28;20033;-65
2022/01/11 04:34:29;;;;;;;31.63;15.30;;;9.20;99.90;;;;;;5043998;28;20095;-65
2022/01/11 04:36:55;;;;;;;35.33;16.10;;;8.90;99.90;;;;;;5041891;28;20544;-65
2022/01/11 04:39:22;;;;;;;30.73;14.88;;;8.30;99.90;;;;;;5043679;28;20083;-66
2022/01/11 04:41:49;;;;;;;37.25;17.23;;;9.40;99.90;;;;;;5044872;28;20471;-66
2022/01/11 04:44:15;;;;;;;32.08;16.85;;;9.40;99.90;;;;;;5047186;28;20033;-65
2022/01/11 04:46:41;;;;;;;34.03;16.75;;;;;;;;;;5033411;28;20558;-65
2022/01/11 04:49:07;;;;;;;29.88;16.27;;;;;;;;;;5038637;28;20108;-65
2022/01/11 04:51:35;;;;;;;35.78;16.73;;;;;;;;;;5041389;28;20036;-65
2022/01/11 04:54:01;;;;;;;32.80;17.02;;;9.30;99.90;;;;;;5038160;28;20576;-65
2022/01/11 04:56:26;;;;;;;33.33;15.80;;;9.20;99.90;;;;;;5046716;28;20464;-65
2022/01/11 04:58:52;;;;;;;31.65;15.63;;;;;;;;;;5044147;28;20033;-65
2022/01/11 05:01:18;;;;;;;27.98;12.02;;;10.30;99.90;;;;;;5044090;28;20049;-65
2022/01/11 05:03:44;;;;;;;30.40;14.30;;;9.40;99.90;;;;;;5041357;28;20025;-65
2022/01/11 05:06:10;;;;;;;35.83;15.88;;;8.40;99.90;;;;;;5039208;28;20247;-65
2022/01/11 05:08:36;;;;;;;31.95;13.27;;;10.30;99.90;;;;;;5045583;28;20553;-65
2022/01/11 05:11:02;;;;;;;30.35;14.68;;;8.40;99.90;;;;;;5034969;28;20079;-65
2022/01/11 05:13:31;;;;;;;30.52;15.75;;;9.20;99.90;;;;;;5044711;28;20067;-65
2022/01/11 05:15:57;;;;;;;30.15;14.73;;;9.10;99.90;;;;;;5048602;28;20025;-65
2022/01/11 05:18:23;;;;;;;27.23;14.18;;;9.30;99.90;;;;;;5049001;28;20079;-65
2022/01/11 05:20:48;;;;;;;27.75;13.60;;;9.20;99.90;;;;;;5044796;28;20040;-65
2022/01/11 05:23:14;;;;;;;29.30;14.90;;;9.30;99.90;;;;;;5047040;28;20489;-65
2022/01/11 05:25:41;;;;;;;30.98;16.15;;;9.30;99.90;;;;;;5046769;28;20494;-66
2022/01/11 05:28:07;;;;;;;32.85;15.50;;;9.30;99.90;;;;;;5041899;28;20108;-66
2022/01/11 05:30:33;;;;;;;28.20;15.38;;;9.30;99.90;;;;;;5047209;28;20432;-65
2022/01/11 05:32:58;;;;;;;25.40;13.02;;;9.30;99.90;;;;;;5048800;28;20039;-66
2022/01/11 05:35:25;;;;;;;33.75;16.83;;;10.20;99.90;;;;;;5047631;28;20249;-66
2022/01/11 05:37:52;;;;;;;32.72;16.27;;;9.30;99.90;;;;;;5042702;28;20033;-66
2022/01/11 05:40:19;;;;;;;30.23;12.93;;;9.30;99.90;;;;;;5045753;28;20033;-66
2022/01/11 05:42:46;;;;;;;31.27;16.17;;;9.30;99.90;;;;;;5046511;28;20429;-65
2022/01/11 05:45:13;;;;;;;33.45;15.73;;;9.20;99.90;;;;;;5047339;28;20043;-65
2022/01/11 05:47:39;;;;;;;35.60;17.00;;;9.20;99.90;;;;;;5045640;28;20021;-65
2022/01/11 05:50:08;;;;;;;37.92;16.63;;;9.20;99.90;;;;;;5050177;28;20031;-65
2022/01/11 05:52:35;;;;;;;32.67;15.82;;;9.20;99.90;;;;;;5042420;28;20028;-66
2022/01/11 05:55:02;;;;;;;34.92;15.25;;;9.20;99.90;;;;;;5048818;28;20527;-66
2022/01/11 05:57:28;;;;;;;34.80;17.88;;;8.90;99.90;;;;;;5047722;28;20648;-65
2022/01/11 05:59:55;;;;;;;40.00;17.60;;;9.20;99.90;;;;;;5034768;28;20029;-66
2022/01/11 06:02:21;;;;;;;41.50;17.08;;;8.90;99.90;;;;;;5049646;28;20128;-65
2022/01/11 06:04:47;;;;;;;30.88;15.77;;;10.10;99.90;;;;;;5051213;28;20097;-65
2022/01/11 06:07:13;;;;;;;38.35;18.25;;;8.50;99.90;;;;;;5052042;28;20021;-65
2022/01/11 06:09:39;;;;;;;32.90;14.75;;;9.60;99.90;;;;;;5041139;28;20026;-66
2022/01/11 06:12:05;;;;;;;35.33;17.88;;;9.90;99.90;;;;;;5052521;28;20037;-66
2022/01/11 06:14:31;;;;;;;35.78;16.45;;;9.20;99.90;;;;;;5049580;28;20054;-65
2022/01/11 06:16:57;;;;;;;45.50;17.75;;;9.00;99.90;;;;;;5053086;28;20021;-65
2022/01/11 06:19:22;;;;;;;41.28;17.92;;;8.20;99.90;;;;;;5049324;28;20048;-65
2022/01/11 06:21:48;;;;;;;45.45;19.70;;;9.10;99.90;;;;;;5049241;28;20507;-65
2022/01/11 06:24:14;;;;;;;37.88;17.75;;;8.50;99.90;;;;;;5042339;28;20071;-66
2022/01/11 06:26:41;;;;;;;43.25;18.55;;;9.10;99.90;;;;;;5045516;28;20078;-66
2022/01/11 06:29:07;;;;;;;39.28;18.98;;;8.90;99.90;;;;;;5040236;28;20116;-65
2022/01/11 06:31:35;;;;;;;43.70;19.58;;;9.00;99.90;;;;;;5042841;28;20373;-65
2022/01/11 06:34:01;;;;;;;39.65;17.35;;;8.60;99.90;;;;;;5044753;28;20033;-66
2022/01/11 06:36:28;;;;;;;39.13;18.90;;;9.00;99.90;;;;;;5051218;28;20104;-66
2022/01/11 06:38:54;;;;;;;32.70;16.02;;;8.70;99.90;;;;;;5037023;28;20020;-66
2022/01/11 06:41:20;;;;;;;38.90;16.42;;;9.50;99.90;;;;;;5048896;28;20068;-66
2022/01/11 06:43:46;;;;;;;40.15;18.63;;;9.00;99.90;;;;;;5032050;28;20025;-66
2022/01/11 06:46:11;;;;;;;39.55;19.23;;;9.00;99.90;;;;;;5043428;28;20396;-66
2022/01/11 06:48:37;;;;;;;39.33;17.60;;;9.00;99.90;;;;;;5041630;28;20031;-65
2022/01/11 06:51:03;;;;;;;48.58;19.20;;;9.00;99.90;;;;;;5034749;28;20036;-65
2022/01/11 06:53:31;;;;;;;33.45;16.58;;;9.70;99.90;;;;;;5047561;28;20108;-65
2022/01/11 06:55:57;;;;;;;30.98;16.75;;;8.70;99.90;;;;;;5048856;28;20106;-65
2022/01/11 06:58:22;;;;;;;32.55;15.93;;;9.20;99.90;;;;;;5040489;28;20485;-65
2022/01/11 07:00:49;;;;;;;39.15;19.00;;;8.60;99.90;;;;;;5044678;28;20041;-66
2022/01/11 07:03:18;;;;;;;38.33;18.10;;;9.00;99.90;;;;;;5045774;28;20058;-66
2022/01/11 07:05:44;;;;;;;25.23;14.05;;;8.90;99.90;;;;;;5031235;28;20075;-66
2022/01/11 07:08:11;;;;;;;27.08;13.20;;;9.10;99.90;;;;;;5055266;28;20071;-66
2022/01/11 07:10:37;;;;;;;29.67;15.25;;;;;;;;;;5038356;28;20025;-66
2022/01/11 07:13:04;;;;;;;31.08;15.60;;;9.30;99.90;;;;;;5037386;28;20033;-65
2022/01/11 07:15:31;;;;;;;31.58;16.15;;;8.80;99.90;;;;;;5040357;28;20037;-66
2022/01/11 07:17:57;;;;;;;34.22;18.15;;;9.60;99.90;;;;;;5046720;28;20108;-66
2022/01/11 07:20:23;;;;;;;39.40;17.88;;;8.80;99.90;;;;;;5048415;28;20035;-66
2022/01/11 07:22:49;;;;;;;37.28;17.35;;;9.10;99.90;;;;;;5047899;28;20100;-66
2022/01/11 07:25:15;;;;;;;40.90;19.05;;;8.80;99.90;;;;;;5037451;28;20021;-66
2022/01/11 07:27:41;;;;;;;38.80;15.52;;;8.80;99.90;;;;;;5039000;28;20076;-66
2022/01/11 07:30:09;;;;;;;35.25;17.65;;;8.80;99.90;;;;;;5033233;28;20365;-66
2022/01/11 07:32:35;;;;;;;36.90;17.75;;;8.90;99.90;;;;;;5038467;28;20021;-66
2022/01/11 07:35:02;;;;;;;38.47;17.92;;;8.40;99.90;;;;;;5038124;28;20534;-66
2022/01/11 07:37:28;;;;;;;43.08;18.55;;;8.90;99.90;;;;;;5037896;28;20033;-66
2022/01/11 07:39:54;;;;;;;40.65;18.48;;;8.90;99.90;;;;;;5036874;28;20392;-67
2022/01/11 07:42:20;;;;;;;39.25;18.10;;;8.50;99.90;;;;;;5031652;28;20049;-66
2022/01/11 07:44:48;;;;;;;41.72;18.73;;;8.90;99.90;;;;;;5043282;28;20459;-66
2022/01/11 07:47:13;;;;;;;38.78;18.13;;;8.80;99.90;;;;;;5055455;28;20024;-66
2022/01/11 07:49:39;;;;;;;36.30;18.80;;;8.90;99.90;;;;;;5041441;28;20476;-66
2022/01/11 07:52:06;;;;;;;36.05;15.18;;;8.90;99.90;;;;;;5040807;28;20025;-66
2022/01/11 07:54:32;;;;;;;36.03;16.35;;;8.90;99.90;;;;;;5041567;28;20106;-66
2022/01/11 07:56:57;;;;;;;36.67;17.15;;;8.90;99.90;;;;;;5037099;28;20025;-65
2022/01/11 07:59:23;;;;;;;35.65;17.63;;;8.90;99.90;;;;;;5045509;28;20028;-66
2022/01/11 08:01:49;;;;;;;37.10;17.15;;;8.90;99.90;;;;;;5047560;28;20071;-66
2022/01/11 08:04:17;;;;;;;34.70;16.73;;;8.80;99.90;;;;;;5040384;28;20061;-66
2022/01/11 08:06:43;;;;;;;23.48;10.88;;;9.20;99.90;;;;;;5039251;28;20292;-66
2022/01/11 08:09:10;;;;;;;29.92;14.32;;;8.90;99.90;;;;;;5043177;28;20252;-66
2022/01/11 08:11:36;;;;;;;34.85;15.57;;;8.60;99.90;;;;;;5038592;28;20063;-66
2022/01/11 08:14:02;;;;;;;34.55;14.65;;;9.10;99.90;;;;;;5039604;28;20053;-66
2022/01/11 08:16:27;;;;;;;33.63;15.57;;;9.70;99.90;;;;;;5035066;28;20594;-66
2022/01/11 08:18:53;;;;;;;27.75;13.95;;;;;;;;;;5047479;28;20046;-65
2022/01/11 08:21:20;;;;;;;29.08;15.82;;;;;;;;;;5044296;28;20032;-65
2022/01/11 08:23:45;;;;;;;30.17;14.88;;;8.80;99.90;;;;;;5041226;28;20115;-65
2022/01/11 08:26:12;;;;;;;29.27;14.82;;;8.90;99.90;;;;;;5044155;28;20159;-65
2022/01/11 08:28:39;;;;;;;20.42;9.45;;;8.70;99.90;;;;;;5042247;28;20028;-65
2022/01/11 08:31:05;;;;;;;30.13;13.10;;;9.10;99.90;;;;;;5038877;28;20063;-65
2022/01/11 08:33:30;;;;;;;30.15;14.82;;;9.00;99.90;;;;;;5039514;28;20492;-65
2022/01/11 08:35:56;;;;;;;25.65;12.23;;;8.80;99.90;;;;;;5041487;28;20408;-64
2022/01/11 08:38:25;;;;;;;24.67;12.32;;;9.00;99.90;;;;;;5031825;28;20067;-64
2022/01/11 08:40:52;;;;;;;36.72;14.95;;;8.10;99.90;;;;;;5039749;28;20060;-65
2022/01/11 08:43:17;;;;;;;37.50;13.25;;;8.80;99.90;;;;;;5046579;28;20029;-65
2022/01/11 08:45:43;;;;;;;23.15;11.52;;;9.20;99.90;;;;;;5041810;28;20028;-65
2022/01/11 08:48:09;;;;;;;24.67;11.02;;;9.10;99.90;;;;;;5053599;28;21604;-65
2022/01/11 08:50:35;;;;;;;23.38;11.98;;;9.40;99.90;;;;;;5051416;28;20146;-66
2022/01/11 08:53:01;;;;;;;21.95;12.07;;;9.00;99.90;;;;;;5057669;28;20044;-66
2022/01/11 08:55:27;;;;;;;25.70;12.60;;;7.70;99.90;;;;;;5051115;28;20032;-66
2022/01/11 08:57:53;;;;;;;19.73;10.77;;;;;;;;;;5052614;28;20021;-66
2022/01/11 09:00:20;;;;;;;21.63;10.10;;;11.00;99.90;;;;;;5053579;28;20041;-65
2022/01/11 09:02:48;;;;;;;25.40;10.40;;;9.00;99.90;;;;;;5047434;28;20119;-66
2022/01/11 09:05:15;;;;;;;24.80;10.55;;;9.20;99.90;;;;;;5056510;28;20032;-65
2022/01/11 09:07:41;;;;;;;23.30;10.63;;;9.50;99.90;;;;;;5043457;28;20025;-64
2022/01/11 09:10:08;;;;;;;17.02;8.30;;;9.40;99.90;;;;;;5049703;28;20025;-64
2022/01/11 09:12:34;;;;;;;19.48;9.55;;;9.10;99.90;;;;;;5044729;28;20510;-65
2022/01/11 09:15:01;;;;;;;20.13;9.05;;;9.10;99.90;;;;;;5047649;28;20548;-64
2022/01/11 09:17:27;;;;;;;16.90;8.32;;;9.20;99.90;;;;;;5045767;28;20235;-65
2022/01/11 09:19:53;;;;;;;18.90;9.80;;;9.20;99.90;;;;;;5052872;28;20108;-65
2022/01/11 09:22:22;;;;;;;17.65;8.80;;;9.30;99.90;;;;;;5048547;28;20029;-64
2022/01/11 09:24:48;;;;;;;16.00;8.85;;;9.40;99.90;;;;;;5041730;28;20500;-64
2022/01/11 09:27:14;;;;;;;16.08;6.03;;;9.50;99.90;;;;;;5045248;28;20032;-65
2022/01/11 09:29:41;;;;;;;18.70;8.32;;;9.60;99.90;;;;;;5041641;28;20059;-64
2022/01/11 09:32:08;;;;;;;15.52;7.57;;;9.60;99.90;;;;;;5041689;28;20029;-65
2022/01/11 09:34:37;;;;;;;14.65;8.15;;;9.60;99.90;;;;;;5044973;28;20033;-65
2022/01/11 09:37:03;;;;;;;17.80;9.32;;;9.60;99.90;;;;;;5052295;28;20342;-65
2022/01/11 09:39:29;;;;;;;20.83;9.75;;;9.60;99.90;;;;;;5047957;28;20024;-65
2022/01/11 09:41:58;;;;;;;13.43;7.18;;;9.60;99.90;;;;;;5048222;28;20022;-66
2022/01/11 09:44:25;;;;;;;18.38;8.52;;;9.50;99.90;;;;;;5035258;28;20120;-66
2022/01/11 09:46:52;;;;;;;16.15;8.57;;;9.50;99.90;;;;;;5049754;28;20047;-66
2022/01/11 09:49:17;;;;;;;14.68;8.15;;;9.40;99.90;;;;;;5039840;28;20091;-66
2022/01/11 09:51:44;;;;;;;15.88;9.23;;;9.40;99.90;;;;;;5037683;28;20423;-66
2022/01/11 09:54:12;;;;;;;20.23;10.00;;;9.40;99.90;;;;;;5046916;28;20685;-66
2022/01/11 09:56:39;;;;;;;17.90;9.43;;;9.50;99.90;;;;;;5041137;28;20033;-65
2022/01/11 09:59:06;;;;;;;16.85;8.38;;;9.50;99.90;;;;;;5046636;28;20029;-66
2022/01/11 10:01:33;;;;;;;16.65;8.48;;;9.50;99.90;;;;;;5043375;28;20114;-66
2022/01/11 10:04:10;;;;;;;18.08;10.20;;;9.60;99.90;;;;;;5047288;28;20029;-66
2022/01/11 10:06:39;;;;;;;23.90;10.23;;;9.70;99.90;;;;;;5040779;28;20021;-66
2022/01/11 10:09:20;;;;;;;19.20;8.32;;;9.70;99.90;;;;;;5045661;28;20060;-66
2022/01/11 10:11:52;;;;;;;17.77;8.60;;;9.70;99.90;;;;;;5046945;28;20063;-66
2022/01/11 10:14:19;;;;;;;19.52;9.55;;;9.60;99.90;;;;;;5046594;28;20488;-66
2022/01/11 10:16:45;;;;;;;14.90;9.13;;;9.70;99.90;;;;;;5046269;28;20032;-66
2022/01/11 10:19:29;;;;;;;22.58;9.82;;;9.70;99.90;;;;;;5042978;28;20497;-66
2022/01/11 10:21:54;;;;;;;17.00;9.30;;;9.80;99.90;;;;;;5043551;28;20108;-66
2022/01/11 10:24:41;;;;;;;17.63;9.07;;;9.90;99.90;;;;;;5044442;28;20096;-66
2022/01/11 10:27:21;;;;;;;17.73;9.05;;;10.00;99.90;;;;;;5038048;28;20029;-66
2022/01/11 10:29:55;;;;;;;19.85;10.13;;;10.00;99.90;;;;;;5032239;28;20041;-66
2022/01/11 10:32:37;;;;;;;23.17;10.18;;;10.20;99.90;;;;;;5045945;28;20080;-66
2022/01/11 10:35:11;;;;;;;22.13;11.25;;;10.20;99.90;;;;;;5047220;28;20644;-66
2022/01/11 10:37:41;;;;;;;22.55;10.90;;;10.20;99.90;;;;;;5042445;28;20025;-65
2022/01/11 10:40:14;;;;;;;15.93;8.53;;;10.30;99.90;;;;;;5039237;28;20022;-66
2022/01/11 10:42:48;;;;;;;16.70;8.13;;;10.30;99.90;;;;;;5041902;28;20021;-66
2022/01/11 10:45:17;;;;;;;17.80;9.13;;;10.30;99.90;;;;;;5034230;28;20110;-66
2022/01/11 10:47:47;;;;;;;15.82;8.23;;;10.30;99.90;;;;;;5046726;28;20021;-66
2022/01/11 10:50:38;;;;;;;22.55;9.77;;;10.20;99.90;;;;;;5045733;28;20037;-66
2022/01/11 10:53:10;;;;;;;20.27;10.02;;;10.20;99.90;;;;;;5046334;28;20056;-66
2022/01/11 10:55:36;;;;;;;17.00;9.63;;;10.20;99.90;;;;;;5036468;28;20025;-66
2022/01/11 10:58:06;;;;;;;17.00;9.13;;;10.20;99.90;;;;;;5039736;28;20094;-66
2022/01/11 11:00:35;;;;;;;16.02;8.20;;;10.10;99.90;;;;;;5045956;28;20087;-66
2022/01/11 11:03:03;;;;;;;14.75;9.18;;;10.10;99.90;;;;;;5045799;28;20040;-66
2022/01/11 11:05:32;;;;;;;17.75;10.13;;;10.20;99.90;;;;;;5032483;28;20030;-66
2022/01/11 11:08:05;;;;;;;16.63;8.73;;;10.20;99.90;;;;;;5047127;28;20029;-66
2022/01/11 11:10:34;;;;;;;17.70;9.38;;;10.30;99.90;;;;;;5042727;28;20116;-66
2022/01/11 11:13:01;;;;;;;16.92;9.68;;;10.00;99.90;;;;;;5040655;28;20029;-66
2022/01/11 11:15:33;;;;;;;19.17;9.65;;;11.40;99.90;;;;;;5043440;28;20043;-66
2022/01/11 11:17:59;;;;;;;18.27;10.38;;;10.50;99.90;;;;;;5030686;28;20694;-66
2022/01/11 11:20:25;;;;;;;17.27;9.45;;;10.50;99.90;;;;;;5035422;28;20025;-66
2022/01/11 11:22:52;;;;;;;20.70;9.82;;;10.50;99.90;;;;;;5043003;28;20024;-66
2022/01/11 11:25:18;;;;;;;16.63;9.85;;;10.60;99.90;;;;;;5038501;28;20021;-66
2022/01/11 11:27:44;;;;;;;15.90;9.10;;;10.60;99.90;;;;;;5038024;28;20428;-66
2022/01/11 11:30:10;;;;;;;12.57;7.55;;;10.60;99.90;;;;;;5045403;28;20033;-66
2022/01/11 11:32:37;;;;;;;20.75;10.18;;;11.00;99.90;;;;;;5032839;28;20031;-66
2022/01/11 11:35:03;;;;;;;16.92;9.38;;;10.50;99.90;;;;;;5031377;28;20043;-66
2022/01/11 11:37:33;;;;;;;20.80;10.20;;;10.40;99.90;;;;;;5041072;28;20025;-66
2022/01/11 11:40:03;;;;;;;18.58;10.88;;;10.30;99.90;;;;;;5040963;28;20495;-66
2022/01/11 11:42:30;;;;;;;24.73;11.20;;;10.30;99.90;;;;;;5031494;28;20055;-66
2022/01/11 11:44:58;;;;;;;18.83;10.13;;;10.90;99.90;;;;;;5045142;28;20439;-66
2022/01/11 11:47:30;;;;;;;19.45;9.90;;;11.10;99.90;;;;;;5047625;28;20083;-66
2022/01/11 11:49:58;;;;;;;20.45;9.55;;;9.60;99.90;;;;;;5034619;28;20160;-66
2022/01/11 11:52:35;;;;;;;20.25;9.43;;;10.50;99.90;;;;;;5040889;28;20029;-66
2022/01/11 11:55:06;;;;;;;20.08;9.55;;;10.10;99.90;;;;;;5040376;28;20025;-66
2022/01/11 11:57:36;;;;;;;18.10;8.27;;;10.10;99.90;;;;;;5039664;28;20106;-66
2022/01/11 12:00:26;;;;;;;16.50;8.43;;;11.30;99.90;;;;;;5030738;28;20569;-66
2022/01/11 12:02:55;;;;;;;18.00;7.85;;;10.10;99.90;;;;;;5045174;28;20048;-65
2022/01/11 12:05:37;;;;;;;18.67;7.68;;;11.40;99.90;;;;;;5045103;28;20167;-65
2022/01/11 12:08:31;;;;;;;16.13;7.93;;;10.20;99.90;;;;;;5048815;28;20033;-66
2022/01/11 12:11:00;;;;;;;19.50;8.20;;;10.50;99.90;;;;;;5041066;28;20059;-65
2022/01/11 12:13:45;;;;;;;17.00;7.20;;;10.40;99.90;;;;;;5032360;28;20425;-65
2022/01/11 12:16:26;;;;;;;12.23;5.80;;;10.60;99.90;;;;;;5033972;28;20017;-66
2022/01/11 12:19:02;;;;;;;17.10;7.65;;;11.00;99.90;;;;;;5033532;28;20493;-67
2022/01/11 12:21:38;;;;;;;20.30;7.90;;;10.50;99.90;;;;;;5032464;28;20025;-66
2022/01/11 12:24:05;;;;;;;19.05;8.45;;;11.10;99.90;;;;;;5038544;28;20049;-67
2022/01/11 12:26:37;;;;;;;19.20;8.48;;;10.50;99.90;;;;;;5036990;28;20031;-66
2022/01/11 12:29:03;;;;;;;21.00;7.70;;;10.20;99.90;;;;;;5038093;28;20392;-66
2022/01/11 12:31:33;;;;;;;17.15;8.23;;;11.70;99.90;;;;;;5054646;28;20074;-66
2022/01/11 12:33:59;;;;;;;18.00;8.02;;;10.90;99.90;;;;;;5039845;28;20033;-66
2022/01/11 12:36:52;;;;;;;16.90;8.20;;;10.90;99.90;;;;;;5041599;28;20022;-66
2022/01/11 12:39:18;;;;;;;14.57;7.82;;;10.60;99.90;;;;;;5032357;28;20045;-66
2022/01/11 12:41:44;;;;;;;14.20;6.57;;;11.00;99.90;;;;;;5043890;28;20021;-66
2022/01/11 12:44:19;;;;;;;18.73;7.65;;;10.80;99.90;;;;;;5033924;28;20618;-66
2022/01/11 12:46:53;;;;;;;11.98;5.78;;;10.60;99.90;;;;;;5036731;28;20033;-65
2022/01/11 12:49:20;;;;;;;13.40;6.32;;;10.80;99.90;;;;;;5042617;28;20036;-66